sensor_id;sensor_type;location;lat;lon;timestamp;temperature;humidity
1367;DHT22;16877;48.810;9.282;2024-01-30T00:00:52;17.10;53.00
1367;DHT22;16877;48.810;9.282;2024-01-30T00:03:18;16.90;52.90
1367;DHT22;16877;48.810;9.282;2024-01-30T00:05:45;17.10;53.10
1367;DHT22;16877;48.810;9.282;2024-01-30T00:08:13;16.80;52.90
1367;DHT22;16877;48.810;9.282;2024-01-30T00:10:40;16.80;52.90
1367;DHT22;16877;48.810;9.282;2024-01-30T00:13:06;16.70;53.00
1367;DHT22;16877;48.810;9.282;2024-01-30T00:15:33;17.30;53.40
1367;DHT22;16877;48.810;9.282;2024-01-30T00:18:00;16.90;53.10
1367;DHT22;16877;48.810;9.282;2024-01-30T00:20:27;16.90;53.10
1367;DHT22;16877;48.810;9.282;2024-01-30T00:22:54;17.00;53.20
1367;DHT22;16877;48.810;9.282;2024-01-30T00:25:22;16.70;53.10
1367;DHT22;16877;48.810;9.282;2024-01-30T00:27:49;16.90;53.50
1367;DHT22;16877;48.810;9.282;2024-01-30T00:30:16;16.80;53.10
1367;DHT22;16877;48.810;9.282;2024-01-30T00:32:42;16.70;53.10
1367;DHT22;16877;48.810;9.282;2024-01-30T00:35:09;16.60;53.50
1367;DHT22;16877;48.810;9.282;2024-01-30T00:37:36;16.80;53.20
1367;DHT22;16877;48.810;9.282;2024-01-30T00:40:04;16.80;53.20
1367;DHT22;16877;48.810;9.282;2024-01-30T00:42:32;16.60;53.00
1367;DHT22;16877;48.810;9.282;2024-01-30T00:44:59;16.70;53.20
1367;DHT22;16877;48.810;9.282;2024-01-30T00:47:26;16.80;53.30
1367;DHT22;16877;48.810;9.282;2024-01-30T00:49:54;16.80;53.40
1367;DHT22;16877;48.810;9.282;2024-01-30T00:52:21;16.60;53.10
1367;DHT22;16877;48.810;9.282;2024-01-30T00:54:47;17.00;53.50
1367;DHT22;16877;48.810;9.282;2024-01-30T00:57:14;16.90;53.40
1367;DHT22;16877;48.810;9.282;2024-01-30T00:59:42;16.70;53.30
1367;DHT22;16877;48.810;9.282;2024-01-30T01:02:09;16.80;53.60
1367;DHT22;16877;48.810;9.282;2024-01-30T01:04:35;16.70;53.40
1367;DHT22;16877;48.810;9.282;2024-01-30T01:07:02;16.70;53.40
1367;DHT22;16877;48.810;9.282;2024-01-30T01:09:29;16.50;53.90
1367;DHT22;16877;48.810;9.282;2024-01-30T01:11:56;16.70;53.60
1367;DHT22;16877;48.810;9.282;2024-01-30T01:14:22;16.50;53.40
1367;DHT22;16877;48.810;9.282;2024-01-30T01:16:50;16.80;53.90
1367;DHT22;16877;48.810;9.282;2024-01-30T01:19:16;16.80;53.80
1367;DHT22;16877;48.810;9.282;2024-01-30T01:21:43;16.50;53.70
1367;DHT22;16877;48.810;9.282;2024-01-30T01:24:09;16.50;53.40
1367;DHT22;16877;48.810;9.282;2024-01-30T01:26:36;16.70;53.60
1367;DHT22;16877;48.810;9.282;2024-01-30T01:29:03;16.70;53.60
1367;DHT22;16877;48.810;9.282;2024-01-30T01:31:35;16.60;53.70
1367;DHT22;16877;48.810;9.282;2024-01-30T01:34:06;16.70;54.50
1367;DHT22;16877;48.810;9.282;2024-01-30T01:36:33;16.60;53.70
1367;DHT22;16877;48.810;9.282;2024-01-30T01:39:00;16.70;54.10
1367;DHT22;16877;48.810;9.282;2024-01-30T01:41:30;16.40;53.50
1367;DHT22;16877;48.810;9.282;2024-01-30T01:43:57;16.60;53.70
1367;DHT22;16877;48.810;9.282;2024-01-30T01:46:26;16.70;53.70
1367;DHT22;16877;48.810;9.282;2024-01-30T01:48:53;16.30;53.60
1367;DHT22;16877;48.810;9.282;2024-01-30T01:51:22;16.80;54.20
1367;DHT22;16877;48.810;9.282;2024-01-30T01:53:49;16.60;53.60
1367;DHT22;16877;48.810;9.282;2024-01-30T01:56:16;16.50;53.90
1367;DHT22;16877;48.810;9.282;2024-01-30T01:58:44;16.60;53.70
1367;DHT22;16877;48.810;9.282;2024-01-30T02:01:13;16.50;54.00
1367;DHT22;16877;48.810;9.282;2024-01-30T02:03:40;16.50;53.90
1367;DHT22;16877;48.810;9.282;2024-01-30T02:06:07;16.50;54.40
1367;DHT22;16877;48.810;9.282;2024-01-30T02:08:37;16.80;54.20
1367;DHT22;16877;48.810;9.282;2024-01-30T02:11:04;16.40;53.90
1367;DHT22;16877;48.810;9.282;2024-01-30T02:13:31;16.40;53.70
1367;DHT22;16877;48.810;9.282;2024-01-30T02:15:57;16.70;54.10
1367;DHT22;16877;48.810;9.282;2024-01-30T02:18:24;16.50;53.80
1367;DHT22;16877;48.810;9.282;2024-01-30T02:20:53;16.40;53.70
1367;DHT22;16877;48.810;9.282;2024-01-30T02:23:22;16.30;53.80
1367;DHT22;16877;48.810;9.282;2024-01-30T02:25:50;16.40;53.90
1367;DHT22;16877;48.810;9.282;2024-01-30T02:28:18;16.40;54.00
1367;DHT22;16877;48.810;9.282;2024-01-30T02:30:45;16.40;53.80
1367;DHT22;16877;48.810;9.282;2024-01-30T02:33:13;16.60;54.10
1367;DHT22;16877;48.810;9.282;2024-01-30T02:35:39;16.50;53.90
1367;DHT22;16877;48.810;9.282;2024-01-30T02:38:06;16.30;53.80
1367;DHT22;16877;48.810;9.282;2024-01-30T02:40:34;16.40;53.90
1367;DHT22;16877;48.810;9.282;2024-01-30T02:43:02;16.60;54.20
1367;DHT22;16877;48.810;9.282;2024-01-30T02:45:29;16.40;53.90
1367;DHT22;16877;48.810;9.282;2024-01-30T02:47:55;16.30;54.00
1367;DHT22;16877;48.810;9.282;2024-01-30T02:50:22;16.30;54.10
1367;DHT22;16877;48.810;9.282;2024-01-30T02:52:49;16.50;54.30
1367;DHT22;16877;48.810;9.282;2024-01-30T02:55:15;16.10;53.90
1367;DHT22;16877;48.810;9.282;2024-01-30T02:57:44;16.50;54.40
1367;DHT22;16877;48.810;9.282;2024-01-30T03:00:12;16.00;54.00
1367;DHT22;16877;48.810;9.282;2024-01-30T03:02:39;16.10;54.10
1367;DHT22;16877;48.810;9.282;2024-01-30T03:05:07;16.20;54.30
1367;DHT22;16877;48.810;9.282;2024-01-30T03:07:34;16.20;54.20
1367;DHT22;16877;48.810;9.282;2024-01-30T03:10:01;16.10;54.00
1367;DHT22;16877;48.810;9.282;2024-01-30T03:12:28;16.10;54.10
1367;DHT22;16877;48.810;9.282;2024-01-30T03:14:56;16.20;54.30
1367;DHT22;16877;48.810;9.282;2024-01-30T03:17:22;16.10;54.20
1367;DHT22;16877;48.810;9.282;2024-01-30T03:19:49;16.00;54.20
1367;DHT22;16877;48.810;9.282;2024-01-30T03:22:16;16.20;54.50
1367;DHT22;16877;48.810;9.282;2024-01-30T03:24:43;16.20;54.60
1367;DHT22;16877;48.810;9.282;2024-01-30T03:27:09;16.00;54.30
1367;DHT22;16877;48.810;9.282;2024-01-30T03:29:36;16.00;54.50
1367;DHT22;16877;48.810;9.282;2024-01-30T03:32:05;16.00;54.50
1367;DHT22;16877;48.810;9.282;2024-01-30T03:34:31;16.00;54.50
1367;DHT22;16877;48.810;9.282;2024-01-30T03:36:58;16.00;54.50
1367;DHT22;16877;48.810;9.282;2024-01-30T03:39:25;16.00;54.50
1367;DHT22;16877;48.810;9.282;2024-01-30T03:41:51;16.00;54.40
1367;DHT22;16877;48.810;9.282;2024-01-30T03:44:18;15.90;54.50
1367;DHT22;16877;48.810;9.282;2024-01-30T03:46:46;16.00;54.50
1367;DHT22;16877;48.810;9.282;2024-01-30T03:49:14;15.90;54.50
1367;DHT22;16877;48.810;9.282;2024-01-30T03:51:40;15.80;54.60
1367;DHT22;16877;48.810;9.282;2024-01-30T03:54:07;16.20;54.90
1367;DHT22;16877;48.810;9.282;2024-01-30T03:56:34;16.00;54.70
1367;DHT22;16877;48.810;9.282;2024-01-30T03:59:00;15.70;54.60
1367;DHT22;16877;48.810;9.282;2024-01-30T04:01:28;15.90;54.70
1367;DHT22;16877;48.810;9.282;2024-01-30T04:03:54;16.20;55.00
1367;DHT22;16877;48.810;9.282;2024-01-30T04:06:23;15.70;54.60
1367;DHT22;16877;48.810;9.282;2024-01-30T04:08:50;16.00;54.80
1367;DHT22;16877;48.810;9.282;2024-01-30T04:11:18;15.90;54.90
1367;DHT22;16877;48.810;9.282;2024-01-30T04:13:45;15.80;54.80
1367;DHT22;16877;48.810;9.282;2024-01-30T04:16:19;15.60;54.70
1367;DHT22;16877;48.810;9.282;2024-01-30T04:18:46;16.00;55.10
1367;DHT22;16877;48.810;9.282;2024-01-30T04:21:13;15.80;54.90
1367;DHT22;16877;48.810;9.282;2024-01-30T04:23:41;16.00;55.10
1367;DHT22;16877;48.810;9.282;2024-01-30T04:26:08;15.80;55.00
1367;DHT22;16877;48.810;9.282;2024-01-30T04:28:35;15.70;54.90
1367;DHT22;16877;48.810;9.282;2024-01-30T04:31:02;15.80;55.70
1367;DHT22;16877;48.810;9.282;2024-01-30T04:33:28;15.50;54.90
1367;DHT22;16877;48.810;9.282;2024-01-30T04:35:55;15.70;55.00
1367;DHT22;16877;48.810;9.282;2024-01-30T04:38:22;15.70;55.10
1367;DHT22;16877;48.810;9.282;2024-01-30T04:40:50;15.60;55.10
1367;DHT22;16877;48.810;9.282;2024-01-30T04:43:16;15.60;55.00
1367;DHT22;16877;48.810;9.282;2024-01-30T04:45:44;15.90;55.30
1367;DHT22;16877;48.810;9.282;2024-01-30T04:48:11;15.60;55.10
1367;DHT22;16877;48.810;9.282;2024-01-30T04:50:38;15.70;55.30
1367;DHT22;16877;48.810;9.282;2024-01-30T04:53:04;15.50;55.20
1367;DHT22;16877;48.810;9.282;2024-01-30T04:55:31;15.80;55.40
1367;DHT22;16877;48.810;9.282;2024-01-30T04:57:59;15.60;55.20
1367;DHT22;16877;48.810;9.282;2024-01-30T05:00:26;15.80;55.50
1367;DHT22;16877;48.810;9.282;2024-01-30T05:02:52;15.50;55.20
1367;DHT22;16877;48.810;9.282;2024-01-30T05:05:19;15.60;55.30
1367;DHT22;16877;48.810;9.282;2024-01-30T05:07:47;15.50;55.40
1367;DHT22;16877;48.810;9.282;2024-01-30T05:10:14;15.50;55.40
1367;DHT22;16877;48.810;9.282;2024-01-30T05:12:41;15.50;55.30
1367;DHT22;16877;48.810;9.282;2024-01-30T05:15:09;15.50;55.40
1367;DHT22;16877;48.810;9.282;2024-01-30T05:17:36;15.50;55.40
1367;DHT22;16877;48.810;9.282;2024-01-30T05:20:03;15.80;55.70
1367;DHT22;16877;48.810;9.282;2024-01-30T05:22:31;15.50;55.50
1367;DHT22;16877;48.810;9.282;2024-01-30T05:24:58;15.50;55.60
1367;DHT22;16877;48.810;9.282;2024-01-30T05:27:24;15.40;55.50
1367;DHT22;16877;48.810;9.282;2024-01-30T05:29:51;15.60;55.60
1367;DHT22;16877;48.810;9.282;2024-01-30T05:32:19;15.50;55.50
1367;DHT22;16877;48.810;9.282;2024-01-30T05:34:45;15.50;55.60
1367;DHT22;16877;48.810;9.282;2024-01-30T05:37:12;15.60;55.60
1367;DHT22;16877;48.810;9.282;2024-01-30T05:39:42;15.50;55.60
1367;DHT22;16877;48.810;9.282;2024-01-30T05:42:09;15.50;55.60
1367;DHT22;16877;48.810;9.282;2024-01-30T05:44:36;15.40;55.50
1367;DHT22;16877;48.810;9.282;2024-01-30T05:47:03;15.50;56.20
1367;DHT22;16877;48.810;9.282;2024-01-30T05:49:31;15.50;55.70
1367;DHT22;16877;48.810;9.282;2024-01-30T05:51:58;15.40;55.70
1367;DHT22;16877;48.810;9.282;2024-01-30T05:54:24;15.40;55.70
1367;DHT22;16877;48.810;9.282;2024-01-30T05:56:51;15.50;55.70
1367;DHT22;16877;48.810;9.282;2024-01-30T05:59:18;15.20;55.50
1367;DHT22;16877;48.810;9.282;2024-01-30T06:01:46;15.20;55.50
1367;DHT22;16877;48.810;9.282;2024-01-30T06:04:13;15.40;55.80
1367;DHT22;16877;48.810;9.282;2024-01-30T06:06:41;15.30;55.70
1367;DHT22;16877;48.810;9.282;2024-01-30T06:09:07;15.40;55.80
1367;DHT22;16877;48.810;9.282;2024-01-30T06:11:34;15.20;55.60
1367;DHT22;16877;48.810;9.282;2024-01-30T06:14:01;15.30;55.70
1367;DHT22;16877;48.810;9.282;2024-01-30T06:16:28;15.50;56.00
1367;DHT22;16877;48.810;9.282;2024-01-30T06:18:55;15.40;55.90
1367;DHT22;16877;48.810;9.282;2024-01-30T06:21:22;15.60;56.00
1367;DHT22;16877;48.810;9.282;2024-01-30T06:23:50;15.30;55.80
1367;DHT22;16877;48.810;9.282;2024-01-30T06:26:16;15.40;55.90
1367;DHT22;16877;48.810;9.282;2024-01-30T06:28:43;15.30;55.90
1367;DHT22;16877;48.810;9.282;2024-01-30T06:31:10;15.60;56.20
1367;DHT22;16877;48.810;9.282;2024-01-30T06:33:37;15.20;55.80
1367;DHT22;16877;48.810;9.282;2024-01-30T06:36:04;15.20;55.90
1367;DHT22;16877;48.810;9.282;2024-01-30T06:38:30;15.10;55.90
1367;DHT22;16877;48.810;9.282;2024-01-30T06:40:58;15.30;56.10
1367;DHT22;16877;48.810;9.282;2024-01-30T06:43:25;15.30;56.10
1367;DHT22;16877;48.810;9.282;2024-01-30T06:45:52;15.10;55.90
1367;DHT22;16877;48.810;9.282;2024-01-30T06:48:18;15.30;56.10
1367;DHT22;16877;48.810;9.282;2024-01-30T06:50:45;15.40;56.20
1367;DHT22;16877;48.810;9.282;2024-01-30T06:53:13;15.40;56.20
1367;DHT22;16877;48.810;9.282;2024-01-30T06:55:40;15.50;56.30
1367;DHT22;16877;48.810;9.282;2024-01-30T06:58:08;15.10;56.00
1367;DHT22;16877;48.810;9.282;2024-01-30T07:00:34;15.30;56.20
1367;DHT22;16877;48.810;9.282;2024-01-30T07:03:01;15.40;56.30
1367;DHT22;16877;48.810;9.282;2024-01-30T07:05:28;15.50;56.30
1367;DHT22;16877;48.810;9.282;2024-01-30T07:07:55;15.10;56.10
1367;DHT22;16877;48.810;9.282;2024-01-30T07:10:21;15.40;56.30
1367;DHT22;16877;48.810;9.282;2024-01-30T07:12:48;15.50;56.40
1367;DHT22;16877;48.810;9.282;2024-01-30T07:15:16;15.10;56.10
1367;DHT22;16877;48.810;9.282;2024-01-30T07:17:45;15.40;56.20
1367;DHT22;16877;48.810;9.282;2024-01-30T07:20:12;15.20;56.10
1367;DHT22;16877;48.810;9.282;2024-01-30T07:22:39;15.30;56.20
1367;DHT22;16877;48.810;9.282;2024-01-30T07:25:07;15.40;56.30
1367;DHT22;16877;48.810;9.282;2024-01-30T07:27:34;15.60;56.40
1367;DHT22;16877;48.810;9.282;2024-01-30T07:30:01;15.50;56.30
1367;DHT22;16877;48.810;9.282;2024-01-30T07:32:29;15.50;56.30
1367;DHT22;16877;48.810;9.282;2024-01-30T07:34:55;15.50;56.20
1367;DHT22;16877;48.810;9.282;2024-01-30T07:37:22;15.50;56.20
1367;DHT22;16877;48.810;9.282;2024-01-30T07:39:49;15.60;56.20
1367;DHT22;16877;48.810;9.282;2024-01-30T07:42:15;15.60;56.20
1367;DHT22;16877;48.810;9.282;2024-01-30T07:44:43;15.70;56.20
1367;DHT22;16877;48.810;9.282;2024-01-30T07:47:09;15.80;56.20
1367;DHT22;16877;48.810;9.282;2024-01-30T07:49:37;15.80;56.20
1367;DHT22;16877;48.810;9.282;2024-01-30T07:52:04;15.90;56.20
1367;DHT22;16877;48.810;9.282;2024-01-30T07:54:32;15.90;56.10
1367;DHT22;16877;48.810;9.282;2024-01-30T07:57:00;15.80;56.00
1367;DHT22;16877;48.810;9.282;2024-01-30T07:59:26;15.70;55.90
1367;DHT22;16877;48.810;9.282;2024-01-30T08:01:53;16.00;56.10
1367;DHT22;16877;48.810;9.282;2024-01-30T08:04:20;16.30;56.20
1367;DHT22;16877;48.810;9.282;2024-01-30T08:06:48;16.00;56.00
1367;DHT22;16877;48.810;9.282;2024-01-30T08:09:14;16.40;56.30
1367;DHT22;16877;48.810;9.282;2024-01-30T08:11:41;16.30;56.10
1367;DHT22;16877;48.810;9.282;2024-01-30T08:14:08;16.10;55.80
1367;DHT22;16877;48.810;9.282;2024-01-30T08:16:34;16.30;56.00
1367;DHT22;16877;48.810;9.282;2024-01-30T08:19:01;16.40;56.00
1367;DHT22;16877;48.810;9.282;2024-01-30T08:21:28;16.50;56.10
1367;DHT22;16877;48.810;9.282;2024-01-30T08:23:56;16.60;56.10
1367;DHT22;16877;48.810;9.282;2024-01-30T08:26:23;16.60;56.00
1367;DHT22;16877;48.810;9.282;2024-01-30T08:28:49;16.80;56.10
1367;DHT22;16877;48.810;9.282;2024-01-30T08:31:17;16.60;55.80
1367;DHT22;16877;48.810;9.282;2024-01-30T08:33:43;17.20;56.20
1367;DHT22;16877;48.810;9.282;2024-01-30T08:36:10;17.10;56.00
1367;DHT22;16877;48.810;9.282;2024-01-30T08:38:37;17.20;56.00
1367;DHT22;16877;48.810;9.282;2024-01-30T08:41:05;17.30;55.90
1367;DHT22;16877;48.810;9.282;2024-01-30T08:43:32;17.40;55.80
1367;DHT22;16877;48.810;9.282;2024-01-30T08:45:59;18.00;56.20
1367;DHT22;16877;48.810;9.282;2024-01-30T08:48:26;18.00;56.00
1367;DHT22;16877;48.810;9.282;2024-01-30T08:50:52;18.20;56.00
1367;DHT22;16877;48.810;9.282;2024-01-30T08:53:19;18.30;56.10
1367;DHT22;16877;48.810;9.282;2024-01-30T08:55:46;18.60;56.20
1367;DHT22;16877;48.810;9.282;2024-01-30T08:58:14;18.80;56.10
1367;DHT22;16877;48.810;9.282;2024-01-30T09:00:41;19.10;56.20
1367;DHT22;16877;48.810;9.282;2024-01-30T09:03:07;19.20;56.00
1367;DHT22;16877;48.810;9.282;2024-01-30T09:05:34;19.20;55.70
1367;DHT22;16877;48.810;9.282;2024-01-30T09:08:01;19.60;55.80
1367;DHT22;16877;48.810;9.282;2024-01-30T09:10:27;19.30;55.40
1367;DHT22;16877;48.810;9.282;2024-01-30T09:12:54;19.40;55.20
1367;DHT22;16877;48.810;9.282;2024-01-30T09:15:22;19.70;55.10
1367;DHT22;16877;48.810;9.282;2024-01-30T09:17:49;19.60;54.90
1367;DHT22;16877;48.810;9.282;2024-01-30T09:20:16;19.70;54.80
1367;DHT22;16877;48.810;9.282;2024-01-30T09:22:42;19.70;54.60
1367;DHT22;16877;48.810;9.282;2024-01-30T09:25:09;19.90;54.80
1367;DHT22;16877;48.810;9.282;2024-01-30T09:27:36;20.10;54.70
1367;DHT22;16877;48.810;9.282;2024-01-30T09:30:03;20.40;54.60
1367;DHT22;16877;48.810;9.282;2024-01-30T09:32:31;20.50;54.50
1367;DHT22;16877;48.810;9.282;2024-01-30T09:34:58;20.30;54.30
1367;DHT22;16877;48.810;9.282;2024-01-30T09:37:25;20.40;54.20
1367;DHT22;16877;48.810;9.282;2024-01-30T09:39:51;20.80;54.40
1367;DHT22;16877;48.810;9.282;2024-01-30T09:42:23;21.10;54.40
1367;DHT22;16877;48.810;9.282;2024-01-30T09:44:53;21.10;54.20
1367;DHT22;16877;48.810;9.282;2024-01-30T09:47:20;21.60;54.30
1367;DHT22;16877;48.810;9.282;2024-01-30T09:49:48;21.70;54.10
1367;DHT22;16877;48.810;9.282;2024-01-30T09:52:15;21.90;54.10
1367;DHT22;16877;48.810;9.282;2024-01-30T09:54:42;21.80;53.70
1367;DHT22;16877;48.810;9.282;2024-01-30T09:57:11;22.10;53.80
1367;DHT22;16877;48.810;9.282;2024-01-30T09:59:38;22.20;53.90
1367;DHT22;16877;48.810;9.282;2024-01-30T10:02:04;22.20;53.20
1367;DHT22;16877;48.810;9.282;2024-01-30T10:04:31;22.30;53.20
1367;DHT22;16877;48.810;9.282;2024-01-30T10:07:02;22.30;53.10
1367;DHT22;16877;48.810;9.282;2024-01-30T10:09:32;22.60;53.10
1367;DHT22;16877;48.810;9.282;2024-01-30T10:11:58;22.40;52.80
1367;DHT22;16877;48.810;9.282;2024-01-30T10:14:25;22.80;53.00
1367;DHT22;16877;48.810;9.282;2024-01-30T10:16:52;22.80;53.00
1367;DHT22;16877;48.810;9.282;2024-01-30T10:19:19;23.20;53.20
1367;DHT22;16877;48.810;9.282;2024-01-30T10:21:46;23.00;52.90
1367;DHT22;16877;48.810;9.282;2024-01-30T10:24:15;22.90;52.70
1367;DHT22;16877;48.810;9.282;2024-01-30T10:26:43;23.20;52.80
1367;DHT22;16877;48.810;9.282;2024-01-30T10:29:10;23.40;52.90
1367;DHT22;16877;48.810;9.282;2024-01-30T10:31:37;23.20;52.60
1367;DHT22;16877;48.810;9.282;2024-01-30T10:34:03;23.10;52.50
1367;DHT22;16877;48.810;9.282;2024-01-30T10:36:32;23.00;52.30
1367;DHT22;16877;48.810;9.282;2024-01-30T10:39:04;23.40;52.60
1367;DHT22;16877;48.810;9.282;2024-01-30T10:41:43;23.20;52.40
1367;DHT22;16877;48.810;9.282;2024-01-30T10:44:11;23.50;52.80
1367;DHT22;16877;48.810;9.282;2024-01-30T10:46:39;23.10;52.40
1367;DHT22;16877;48.810;9.282;2024-01-30T10:49:07;23.40;52.60
1367;DHT22;16877;48.810;9.282;2024-01-30T10:51:34;23.20;52.50
1367;DHT22;16877;48.810;9.282;2024-01-30T10:54:03;23.40;52.60
1367;DHT22;16877;48.810;9.282;2024-01-30T10:56:32;23.40;52.50
1367;DHT22;16877;48.810;9.282;2024-01-30T10:59:01;23.10;52.30
1367;DHT22;16877;48.810;9.282;2024-01-30T11:01:29;23.10;52.20
1367;DHT22;16877;48.810;9.282;2024-01-30T11:03:56;23.10;52.30
1367;DHT22;16877;48.810;9.282;2024-01-30T11:06:23;23.10;52.30
1367;DHT22;16877;48.810;9.282;2024-01-30T11:09:00;22.90;52.20
1367;DHT22;16877;48.810;9.282;2024-01-30T11:11:28;22.80;52.10
1367;DHT22;16877;48.810;9.282;2024-01-30T11:13:55;23.00;52.30
1367;DHT22;16877;48.810;9.282;2024-01-30T11:16:23;22.70;52.10
1367;DHT22;16877;48.810;9.282;2024-01-30T11:18:50;22.80;52.20
1367;DHT22;16877;48.810;9.282;2024-01-30T11:21:17;23.00;53.00
1367;DHT22;16877;48.810;9.282;2024-01-30T11:23:44;22.90;52.30
1367;DHT22;16877;48.810;9.282;2024-01-30T11:26:11;23.00;52.40
1367;DHT22;16877;48.810;9.282;2024-01-30T11:28:38;22.80;52.30
1367;DHT22;16877;48.810;9.282;2024-01-30T11:31:05;22.90;52.40
1367;DHT22;16877;48.810;9.282;2024-01-30T11:33:33;23.10;52.50
1367;DHT22;16877;48.810;9.282;2024-01-30T11:36:01;23.00;52.50
1367;DHT22;16877;48.810;9.282;2024-01-30T11:38:28;22.80;52.40
1367;DHT22;16877;48.810;9.282;2024-01-30T11:40:55;22.70;52.30
1367;DHT22;16877;48.810;9.282;2024-01-30T11:43:23;23.00;52.60
1367;DHT22;16877;48.810;9.282;2024-01-30T11:45:50;22.90;52.60
1367;DHT22;16877;48.810;9.282;2024-01-30T11:48:17;22.50;52.30
1367;DHT22;16877;48.810;9.282;2024-01-30T11:50:46;22.80;52.50
1367;DHT22;16877;48.810;9.282;2024-01-30T11:53:13;22.80;52.70
1367;DHT22;16877;48.810;9.282;2024-01-30T11:55:39;22.70;52.70
1367;DHT22;16877;48.810;9.282;2024-01-30T11:58:06;22.50;52.60
1367;DHT22;16877;48.810;9.282;2024-01-30T12:00:33;22.60;52.60
1367;DHT22;16877;48.810;9.282;2024-01-30T12:02:59;22.60;52.50
1367;DHT22;16877;48.810;9.282;2024-01-30T12:05:27;22.70;52.70
1367;DHT22;16877;48.810;9.282;2024-01-30T12:07:56;22.50;52.50
1367;DHT22;16877;48.810;9.282;2024-01-30T12:10:24;22.70;52.60
1367;DHT22;16877;48.810;9.282;2024-01-30T12:12:51;22.60;52.60
1367;DHT22;16877;48.810;9.282;2024-01-30T12:15:19;22.60;52.60
1367;DHT22;16877;48.810;9.282;2024-01-30T12:17:47;22.70;52.70
1367;DHT22;16877;48.810;9.282;2024-01-30T12:20:15;22.80;52.80
1367;DHT22;16877;48.810;9.282;2024-01-30T12:22:43;22.60;52.60
1367;DHT22;16877;48.810;9.282;2024-01-30T12:25:12;22.70;52.90
1367;DHT22;16877;48.810;9.282;2024-01-30T12:27:39;22.80;53.10
1367;DHT22;16877;48.810;9.282;2024-01-30T12:30:07;22.60;53.00
1367;DHT22;16877;48.810;9.282;2024-01-30T12:32:35;22.40;52.80
1367;DHT22;16877;48.810;9.282;2024-01-30T12:35:02;22.40;52.90
1367;DHT22;16877;48.810;9.282;2024-01-30T12:37:29;22.50;52.90
1367;DHT22;16877;48.810;9.282;2024-01-30T12:39:56;22.90;53.30
1367;DHT22;16877;48.810;9.282;2024-01-30T12:42:26;22.50;53.00
1367;DHT22;16877;48.810;9.282;2024-01-30T12:44:53;22.70;53.10
1367;DHT22;16877;48.810;9.282;2024-01-30T12:47:21;22.50;52.90
1367;DHT22;16877;48.810;9.282;2024-01-30T12:49:48;22.80;53.30
1367;DHT22;16877;48.810;9.282;2024-01-30T12:52:18;22.50;53.00
1367;DHT22;16877;48.810;9.282;2024-01-30T12:54:44;22.60;53.20
1367;DHT22;16877;48.810;9.282;2024-01-30T12:57:11;22.60;53.10
1367;DHT22;16877;48.810;9.282;2024-01-30T12:59:39;23.10;53.50
1367;DHT22;16877;48.810;9.282;2024-01-30T13:02:07;23.00;53.40
1367;DHT22;16877;48.810;9.282;2024-01-30T13:04:34;23.00;53.30
1367;DHT22;16877;48.810;9.282;2024-01-30T13:07:01;23.40;53.60
1367;DHT22;16877;48.810;9.282;2024-01-30T13:09:29;23.50;53.50
1367;DHT22;16877;48.810;9.282;2024-01-30T13:11:56;23.50;53.60
1367;DHT22;16877;48.810;9.282;2024-01-30T13:14:23;23.70;53.70
1367;DHT22;16877;48.810;9.282;2024-01-30T13:16:51;23.30;53.20
1367;DHT22;16877;48.810;9.282;2024-01-30T13:19:18;23.60;53.40
1367;DHT22;16877;48.810;9.282;2024-01-30T13:21:44;23.70;53.30
1367;DHT22;16877;48.810;9.282;2024-01-30T13:24:11;23.60;53.20
1367;DHT22;16877;48.810;9.282;2024-01-30T13:26:38;23.80;53.30
1367;DHT22;16877;48.810;9.282;2024-01-30T13:29:05;24.30;53.70
1367;DHT22;16877;48.810;9.282;2024-01-30T13:31:31;24.60;53.70
1367;DHT22;16877;48.810;9.282;2024-01-30T13:33:59;24.30;53.40
1367;DHT22;16877;48.810;9.282;2024-01-30T13:36:26;24.90;53.70
1367;DHT22;16877;48.810;9.282;2024-01-30T13:39:04;24.90;53.50
1367;DHT22;16877;48.810;9.282;2024-01-30T13:41:34;25.10;53.50
1367;DHT22;16877;48.810;9.282;2024-01-30T13:44:00;24.80;53.20
1367;DHT22;16877;48.810;9.282;2024-01-30T13:46:28;24.80;53.20
1367;DHT22;16877;48.810;9.282;2024-01-30T13:48:55;24.90;53.20
1367;DHT22;16877;48.810;9.282;2024-01-30T13:51:22;24.80;53.20
1367;DHT22;16877;48.810;9.282;2024-01-30T13:53:48;24.90;53.20
1367;DHT22;16877;48.810;9.282;2024-01-30T13:56:17;24.50;53.00
1367;DHT22;16877;48.810;9.282;2024-01-30T13:58:44;24.70;53.20
1367;DHT22;16877;48.810;9.282;2024-01-30T14:01:10;24.80;53.20
1367;DHT22;16877;48.810;9.282;2024-01-30T14:03:37;24.70;53.30
1367;DHT22;16877;48.810;9.282;2024-01-30T14:06:04;24.60;53.30
1367;DHT22;16877;48.810;9.282;2024-01-30T14:08:32;24.70;53.60
1367;DHT22;16877;48.810;9.282;2024-01-30T14:10:58;24.60;53.50
1367;DHT22;16877;48.810;9.282;2024-01-30T14:13:26;24.40;53.70
1367;DHT22;16877;48.810;9.282;2024-01-30T14:15:53;24.40;53.70
1367;DHT22;16877;48.810;9.282;2024-01-30T14:18:20;24.40;53.90
1367;DHT22;16877;48.810;9.282;2024-01-30T14:20:46;24.00;53.70
1367;DHT22;16877;48.810;9.282;2024-01-30T14:23:13;24.30;54.00
1367;DHT22;16877;48.810;9.282;2024-01-30T14:25:40;24.20;54.00
1367;DHT22;16877;48.810;9.282;2024-01-30T14:28:07;23.90;53.80
1367;DHT22;16877;48.810;9.282;2024-01-30T14:30:35;24.00;54.00
1367;DHT22;16877;48.810;9.282;2024-01-30T14:33:02;24.10;54.30
1367;DHT22;16877;48.810;9.282;2024-01-30T14:35:28;24.00;61.70
1367;DHT22;16877;48.810;9.282;2024-01-30T14:37:55;24.10;66.20
1367;DHT22;16877;48.810;9.282;2024-01-30T14:40:22;24.10;63.80
1367;DHT22;16877;48.810;9.282;2024-01-30T14:42:49;24.40;63.40
1367;DHT22;16877;48.810;9.282;2024-01-30T14:45:15;24.60;62.60
1367;DHT22;16877;48.810;9.282;2024-01-30T14:47:44;24.70;62.10
1367;DHT22;16877;48.810;9.282;2024-01-30T14:50:10;24.80;62.60
1367;DHT22;16877;48.810;9.282;2024-01-30T14:52:37;24.70;61.20
1367;DHT22;16877;48.810;9.282;2024-01-30T14:55:06;24.90;61.20
1367;DHT22;16877;48.810;9.282;2024-01-30T14:57:32;25.00;61.00
1367;DHT22;16877;48.810;9.282;2024-01-30T15:00:00;24.80;60.50
1367;DHT22;16877;48.810;9.282;2024-01-30T15:02:27;25.20;60.60
1367;DHT22;16877;48.810;9.282;2024-01-30T15:04:55;24.80;59.90
1367;DHT22;16877;48.810;9.282;2024-01-30T15:07:21;24.80;59.80
1367;DHT22;16877;48.810;9.282;2024-01-30T15:09:48;25.00;59.80
1367;DHT22;16877;48.810;9.282;2024-01-30T15:12:15;25.00;59.80
1367;DHT22;16877;48.810;9.282;2024-01-30T15:14:41;25.10;59.70
1367;DHT22;16877;48.810;9.282;2024-01-30T15:17:16;25.20;59.70
1367;DHT22;16877;48.810;9.282;2024-01-30T15:19:42;25.10;59.60
1367;DHT22;16877;48.810;9.282;2024-01-30T15:22:10;25.10;59.70
1367;DHT22;16877;48.810;9.282;2024-01-30T15:24:37;25.10;59.60
1367;DHT22;16877;48.810;9.282;2024-01-30T15:27:04;25.20;59.60
1367;DHT22;16877;48.810;9.282;2024-01-30T15:29:31;25.20;59.50
1367;DHT22;16877;48.810;9.282;2024-01-30T15:31:57;25.00;59.10
1367;DHT22;16877;48.810;9.282;2024-01-30T15:34:24;24.90;59.40
1367;DHT22;16877;48.810;9.282;2024-01-30T15:36:51;24.90;59.40
1367;DHT22;16877;48.810;9.282;2024-01-30T15:39:19;24.70;59.20
1367;DHT22;16877;48.810;9.282;2024-01-30T15:41:46;24.80;59.10
1367;DHT22;16877;48.810;9.282;2024-01-30T15:44:12;24.60;58.60